sensor_id;sensor_type;location;lat;lon;timestamp;temperature;humidity
29813;DHT22;16707;48.106;11.548;2023-03-01T00:01:45;1.60;98.00
29813;DHT22;16707;48.106;11.548;2023-03-01T00:04:12;1.60;98.00
29813;DHT22;16707;48.106;11.548;2023-03-01T00:06:40;1.50;98.00
29813;DHT22;16707;48.106;11.548;2023-03-01T00:09:08;1.50;98.20
29813;DHT22;16707;48.106;11.548;2023-03-01T00:11:37;1.50;98.50
29813;DHT22;16707;48.106;11.548;2023-03-01T00:14:07;1.50;98.20
29813;DHT22;16707;48.106;11.548;2023-03-01T00:16:36;1.50;98.10
29813;DHT22;16707;48.106;11.548;2023-03-01T00:19:06;1.60;98.40
29813;DHT22;16707;48.106;11.548;2023-03-01T00:21:33;1.60;98.00
29813;DHT22;16707;48.106;11.548;2023-03-01T00:24:01;1.60;98.00
29813;DHT22;16707;48.106;11.548;2023-03-01T00:26:28;1.60;98.00
29813;DHT22;16707;48.106;11.548;2023-03-01T00:28:58;1.50;98.20
29813;DHT22;16707;48.106;11.548;2023-03-01T00:31:27;1.50;98.10
29813;DHT22;16707;48.106;11.548;2023-03-01T00:33:55;1.50;98.30
29813;DHT22;16707;48.106;11.548;2023-03-01T00:36:24;1.40;98.10
29813;DHT22;16707;48.106;11.548;2023-03-01T00:38:52;1.50;98.20
29813;DHT22;16707;48.106;11.548;2023-03-01T00:41:19;1.40;98.30
29813;DHT22;16707;48.106;11.548;2023-03-01T00:43:50;1.40;98.30
29813;DHT22;16707;48.106;11.548;2023-03-01T00:46:20;1.50;98.40
29813;DHT22;16707;48.106;11.548;2023-03-01T00:48:47;1.50;98.20
29813;DHT22;16707;48.106;11.548;2023-03-01T00:51:19;1.40;98.40
29813;DHT22;16707;48.106;11.548;2023-03-01T00:53:47;1.40;98.30
29813;DHT22;16707;48.106;11.548;2023-03-01T00:56:14;1.50;98.60
29813;DHT22;16707;48.106;11.548;2023-03-01T00:58:41;1.40;98.30
29813;DHT22;16707;48.106;11.548;2023-03-01T01:01:09;1.40;98.60
29813;DHT22;16707;48.106;11.548;2023-03-01T01:03:45;1.40;98.70
29813;DHT22;16707;48.106;11.548;2023-03-01T01:06:16;1.40;98.80
29813;DHT22;16707;48.106;11.548;2023-03-01T01:08:50;1.40;98.90
29813;DHT22;16707;48.106;11.548;2023-03-01T01:11:18;1.50;98.70
29813;DHT22;16707;48.106;11.548;2023-03-01T01:13:46;1.40;98.40
29813;DHT22;16707;48.106;11.548;2023-03-01T01:16:13;1.50;98.30
29813;DHT22;16707;48.106;11.548;2023-03-01T01:18:41;1.50;98.30
29813;DHT22;16707;48.106;11.548;2023-03-01T01:21:11;1.40;98.40
29813;DHT22;16707;48.106;11.548;2023-03-01T01:23:39;1.40;98.30
29813;DHT22;16707;48.106;11.548;2023-03-01T01:26:09;1.50;98.60
29813;DHT22;16707;48.106;11.548;2023-03-01T01:28:37;1.50;98.30
29813;DHT22;16707;48.106;11.548;2023-03-01T01:31:07;1.50;98.10
29813;DHT22;16707;48.106;11.548;2023-03-01T01:33:36;1.40;98.30
29813;DHT22;16707;48.106;11.548;2023-03-01T01:36:04;1.50;98.40
29813;DHT22;16707;48.106;11.548;2023-03-01T01:38:38;1.40;98.10
29813;DHT22;16707;48.106;11.548;2023-03-01T01:41:06;1.40;98.10
29813;DHT22;16707;48.106;11.548;2023-03-01T01:43:36;1.40;98.30
29813;DHT22;16707;48.106;11.548;2023-03-01T01:46:04;1.40;98.20
29813;DHT22;16707;48.106;11.548;2023-03-01T01:48:39;1.40;98.00
29813;DHT22;16707;48.106;11.548;2023-03-01T01:51:10;1.40;98.20
29813;DHT22;16707;48.106;11.548;2023-03-01T01:53:40;1.40;98.40
29813;DHT22;16707;48.106;11.548;2023-03-01T01:56:11;1.40;98.00
29813;DHT22;16707;48.106;11.548;2023-03-01T01:58:40;1.30;98.20
29813;DHT22;16707;48.106;11.548;2023-03-01T02:01:13;1.30;98.40
29813;DHT22;16707;48.106;11.548;2023-03-01T02:03:42;1.30;98.50
29813;DHT22;16707;48.106;11.548;2023-03-01T02:06:15;1.40;98.30
29813;DHT22;16707;48.106;11.548;2023-03-01T02:08:49;1.40;98.30
29813;DHT22;16707;48.106;11.548;2023-03-01T02:11:17;1.30;98.10
29813;DHT22;16707;48.106;11.548;2023-03-01T02:13:45;1.30;98.30
29813;DHT22;16707;48.106;11.548;2023-03-01T02:16:14;1.40;98.30
29813;DHT22;16707;48.106;11.548;2023-03-01T02:18:42;1.30;98.30
29813;DHT22;16707;48.106;11.548;2023-03-01T02:21:25;1.30;98.20
29813;DHT22;16707;48.106;11.548;2023-03-01T02:23:58;1.20;98.40
29813;DHT22;16707;48.106;11.548;2023-03-01T02:26:33;1.30;98.40
29813;DHT22;16707;48.106;11.548;2023-03-01T02:29:07;1.20;98.40
29813;DHT22;16707;48.106;11.548;2023-03-01T02:31:34;1.20;98.30
29813;DHT22;16707;48.106;11.548;2023-03-01T02:34:12;1.20;98.10
29813;DHT22;16707;48.106;11.548;2023-03-01T02:36:42;1.10;98.20
29813;DHT22;16707;48.106;11.548;2023-03-01T02:39:17;1.10;98.60
29813;DHT22;16707;48.106;11.548;2023-03-01T02:41:51;1.20;98.60
29813;DHT22;16707;48.106;11.548;2023-03-01T02:44:20;1.10;98.70
29813;DHT22;16707;48.106;11.548;2023-03-01T02:46:50;1.20;99.10
29813;DHT22;16707;48.106;11.548;2023-03-01T02:49:23;1.20;98.60
29813;DHT22;16707;48.106;11.548;2023-03-01T02:52:01;1.20;98.30
29813;DHT22;16707;48.106;11.548;2023-03-01T02:54:36;1.10;98.10
29813;DHT22;16707;48.106;11.548;2023-03-01T02:57:05;1.10;98.90
29813;DHT22;16707;48.106;11.548;2023-03-01T02:59:36;1.20;98.80
29813;DHT22;16707;48.106;11.548;2023-03-01T03:02:06;1.20;98.40
29813;DHT22;16707;48.106;11.548;2023-03-01T03:04:34;1.20;98.40
29813;DHT22;16707;48.106;11.548;2023-03-01T03:07:01;1.10;98.10
29813;DHT22;16707;48.106;11.548;2023-03-01T03:09:28;1.10;98.00
29813;DHT22;16707;48.106;11.548;2023-03-01T03:11:56;1.00;98.10
29813;DHT22;16707;48.106;11.548;2023-03-01T03:14:23;1.00;98.00
29813;DHT22;16707;48.106;11.548;2023-03-01T03:16:52;1.00;97.90
29813;DHT22;16707;48.106;11.548;2023-03-01T03:19:19;1.00;97.80
29813;DHT22;16707;48.106;11.548;2023-03-01T03:21:46;0.90;98.00
29813;DHT22;16707;48.106;11.548;2023-03-01T03:24:15;0.90;98.20
29813;DHT22;16707;48.106;11.548;2023-03-01T03:26:48;0.90;97.90
29813;DHT22;16707;48.106;11.548;2023-03-01T03:29:14;0.90;98.00
29813;DHT22;16707;48.106;11.548;2023-03-01T03:31:45;1.10;97.90
29813;DHT22;16707;48.106;11.548;2023-03-01T03:34:14;1.10;97.90
29813;DHT22;16707;48.106;11.548;2023-03-01T03:36:43;1.10;97.90
29813;DHT22;16707;48.106;11.548;2023-03-01T03:39:10;1.20;97.60
29813;DHT22;16707;48.106;11.548;2023-03-01T03:41:39;1.10;97.90
29813;DHT22;16707;48.106;11.548;2023-03-01T03:44:06;1.10;98.10
29813;DHT22;16707;48.106;11.548;2023-03-01T03:46:33;1.10;98.10
29813;DHT22;16707;48.106;11.548;2023-03-01T03:49:00;1.10;98.00
29813;DHT22;16707;48.106;11.548;2023-03-01T03:51:29;0.90;98.10
29813;DHT22;16707;48.106;11.548;2023-03-01T03:53:56;0.80;98.50
29813;DHT22;16707;48.106;11.548;2023-03-01T03:56:23;0.80;98.50
29813;DHT22;16707;48.106;11.548;2023-03-01T03:58:51;0.80;98.50
29813;DHT22;16707;48.106;11.548;2023-03-01T04:01:21;0.90;98.40
29813;DHT22;16707;48.106;11.548;2023-03-01T04:03:48;0.80;98.60
29813;DHT22;16707;48.106;11.548;2023-03-01T04:06:19;0.70;98.60
29813;DHT22;16707;48.106;11.548;2023-03-01T04:08:48;0.60;98.80
29813;DHT22;16707;48.106;11.548;2023-03-01T04:11:16;0.70;98.70
29813;DHT22;16707;48.106;11.548;2023-03-01T04:13:54;0.80;98.80
29813;DHT22;16707;48.106;11.548;2023-03-01T04:16:23;0.80;98.60
29813;DHT22;16707;48.106;11.548;2023-03-01T04:18:51;0.80;98.40
29813;DHT22;16707;48.106;11.548;2023-03-01T04:21:21;0.70;98.30
29813;DHT22;16707;48.106;11.548;2023-03-01T04:23:50;0.70;98.70
29813;DHT22;16707;48.106;11.548;2023-03-01T04:26:18;0.70;98.80
29813;DHT22;16707;48.106;11.548;2023-03-01T04:28:46;0.70;98.60
29813;DHT22;16707;48.106;11.548;2023-03-01T04:31:17;0.70;98.40
29813;DHT22;16707;48.106;11.548;2023-03-01T04:33:48;0.60;98.30
29813;DHT22;16707;48.106;11.548;2023-03-01T04:36:19;0.60;98.80
29813;DHT22;16707;48.106;11.548;2023-03-01T04:38:47;0.60;98.90
29813;DHT22;16707;48.106;11.548;2023-03-01T04:41:17;0.60;98.60
29813;DHT22;16707;48.106;11.548;2023-03-01T04:43:45;0.60;98.70
29813;DHT22;16707;48.106;11.548;2023-03-01T04:46:17;0.50;98.70
29813;DHT22;16707;48.106;11.548;2023-03-01T04:48:47;0.50;98.80
29813;DHT22;16707;48.106;11.548;2023-03-01T04:51:15;0.60;99.00
29813;DHT22;16707;48.106;11.548;2023-03-01T04:53:42;0.50;98.80
29813;DHT22;16707;48.106;11.548;2023-03-01T04:56:10;0.50;98.80
29813;DHT22;16707;48.106;11.548;2023-03-01T04:58:41;0.50;98.60
29813;DHT22;16707;48.106;11.548;2023-03-01T05:01:09;0.50;98.50
29813;DHT22;16707;48.106;11.548;2023-03-01T05:03:43;0.30;98.50
29813;DHT22;16707;48.106;11.548;2023-03-01T05:06:17;0.40;98.90
29813;DHT22;16707;48.106;11.548;2023-03-01T05:08:44;0.20;98.80
29813;DHT22;16707;48.106;11.548;2023-03-01T05:11:12;0.20;99.00
29813;DHT22;16707;48.106;11.548;2023-03-01T05:13:41;0.20;99.20
29813;DHT22;16707;48.106;11.548;2023-03-01T05:16:09;0.20;99.30
29813;DHT22;16707;48.106;11.548;2023-03-01T05:18:40;0.20;99.80
29813;DHT22;16707;48.106;11.548;2023-03-01T05:21:09;0.20;99.60
29813;DHT22;16707;48.106;11.548;2023-03-01T05:23:37;0.20;99.80
29813;DHT22;16707;48.106;11.548;2023-03-01T05:26:08;0.10;99.80
29813;DHT22;16707;48.106;11.548;2023-03-01T05:28:38;0.10;99.70
29813;DHT22;16707;48.106;11.548;2023-03-01T05:31:06;0.00;99.90
29813;DHT22;16707;48.106;11.548;2023-03-01T05:33:35;0.00;99.90
29813;DHT22;16707;48.106;11.548;2023-03-01T05:36:06;0.10;99.90
29813;DHT22;16707;48.106;11.548;2023-03-01T05:38:34;0.10;99.70
29813;DHT22;16707;48.106;11.548;2023-03-01T05:41:05;0.00;99.90
29813;DHT22;16707;48.106;11.548;2023-03-01T05:43:40;0.00;99.90
29813;DHT22;16707;48.106;11.548;2023-03-01T05:46:10;0.00;99.90
29813;DHT22;16707;48.106;11.548;2023-03-01T05:48:38;0.10;99.90
29813;DHT22;16707;48.106;11.548;2023-03-01T05:51:05;0.00;99.90
29813;DHT22;16707;48.106;11.548;2023-03-01T05:53:36;0.00;99.90
29813;DHT22;16707;48.106;11.548;2023-03-01T05:56:05;0.00;99.90
29813;DHT22;16707;48.106;11.548;2023-03-01T05:58:32;0.00;99.90
29813;DHT22;16707;48.106;11.548;2023-03-01T06:01:00;0.00;99.90
29813;DHT22;16707;48.106;11.548;2023-03-01T06:03:28;0.10;99.90
29813;DHT22;16707;48.106;11.548;2023-03-01T06:05:56;0.10;99.90
29813;DHT22;16707;48.106;11.548;2023-03-01T06:08:23;0.00;99.80
29813;DHT22;16707;48.106;11.548;2023-03-01T06:10:52;0.00;99.90
29813;DHT22;16707;48.106;11.548;2023-03-01T06:13:19;0.10;99.90
29813;DHT22;16707;48.106;11.548;2023-03-01T06:15:47;0.20;99.90
29813;DHT22;16707;48.106;11.548;2023-03-01T06:18:14;0.10;99.50
29813;DHT22;16707;48.106;11.548;2023-03-01T06:20:43;0.00;99.70
29813;DHT22;16707;48.106;11.548;2023-03-01T06:23:13;-0.10;99.90
29813;DHT22;16707;48.106;11.548;2023-03-01T06:25:40;-0.10;99.90
29813;DHT22;16707;48.106;11.548;2023-03-01T06:28:07;-0.10;99.70
29813;DHT22;16707;48.106;11.548;2023-03-01T06:30:34;-0.20;99.90
29813;DHT22;16707;48.106;11.548;2023-03-01T06:33:03;-0.20;99.90
29813;DHT22;16707;48.106;11.548;2023-03-01T06:35:36;0.00;99.90
29813;DHT22;16707;48.106;11.548;2023-03-01T06:38:04;0.10;99.70
29813;DHT22;16707;48.106;11.548;2023-03-01T06:40:32;0.00;99.90
29813;DHT22;16707;48.106;11.548;2023-03-01T06:43:04;0.00;99.70
29813;DHT22;16707;48.106;11.548;2023-03-01T06:45:34;0.00;99.90
29813;DHT22;16707;48.106;11.548;2023-03-01T06:48:03;0.00;99.70
29813;DHT22;16707;48.106;11.548;2023-03-01T06:50:33;0.10;99.60
29813;DHT22;16707;48.106;11.548;2023-03-01T06:53:00;-0.20;99.70
29813;DHT22;16707;48.106;11.548;2023-03-01T06:55:29;0.00;99.90
29813;DHT22;16707;48.106;11.548;2023-03-01T06:57:57;0.10;99.90
29813;DHT22;16707;48.106;11.548;2023-03-01T07:00:25;0.10;99.60
29813;DHT22;16707;48.106;11.548;2023-03-01T07:02:52;0.10;99.70
29813;DHT22;16707;48.106;11.548;2023-03-01T07:05:20;0.10;99.90
29813;DHT22;16707;48.106;11.548;2023-03-01T07:07:47;0.20;99.50
29813;DHT22;16707;48.106;11.548;2023-03-01T07:10:14;0.10;99.50
29813;DHT22;16707;48.106;11.548;2023-03-01T07:12:42;0.20;99.50
29813;DHT22;16707;48.106;11.548;2023-03-01T07:15:11;0.30;99.60
29813;DHT22;16707;48.106;11.548;2023-03-01T07:17:40;0.40;99.10
29813;DHT22;16707;48.106;11.548;2023-03-01T07:20:11;0.50;98.50
29813;DHT22;16707;48.106;11.548;2023-03-01T07:22:39;0.50;98.40
29813;DHT22;16707;48.106;11.548;2023-03-01T07:25:10;0.50;98.30
29813;DHT22;16707;48.106;11.548;2023-03-01T07:27:42;0.40;98.50
29813;DHT22;16707;48.106;11.548;2023-03-01T07:30:13;0.50;98.50
29813;DHT22;16707;48.106;11.548;2023-03-01T07:32:40;0.60;98.30
29813;DHT22;16707;48.106;11.548;2023-03-01T07:35:08;0.70;97.80
29813;DHT22;16707;48.106;11.548;2023-03-01T07:37:35;0.50;97.90
29813;DHT22;16707;48.106;11.548;2023-03-01T07:40:02;0.40;98.20
29813;DHT22;16707;48.106;11.548;2023-03-01T07:42:29;0.50;98.50
29813;DHT22;16707;48.106;11.548;2023-03-01T07:44:57;0.60;97.90
29813;DHT22;16707;48.106;11.548;2023-03-01T07:47:24;0.60;98.00
29813;DHT22;16707;48.106;11.548;2023-03-01T07:49:51;0.50;97.70
29813;DHT22;16707;48.106;11.548;2023-03-01T07:52:19;0.40;98.40
29813;DHT22;16707;48.106;11.548;2023-03-01T07:54:45;0.50;98.30
29813;DHT22;16707;48.106;11.548;2023-03-01T07:57:15;0.60;98.70
29813;DHT22;16707;48.106;11.548;2023-03-01T07:59:42;0.60;98.40
29813;DHT22;16707;48.106;11.548;2023-03-01T08:02:10;0.80;97.80
29813;DHT22;16707;48.106;11.548;2023-03-01T08:04:40;0.90;97.80
29813;DHT22;16707;48.106;11.548;2023-03-01T08:07:10;1.00;97.10
29813;DHT22;16707;48.106;11.548;2023-03-01T08:09:40;0.80;97.80
29813;DHT22;16707;48.106;11.548;2023-03-01T08:12:09;0.90;97.80
29813;DHT22;16707;48.106;11.548;2023-03-01T08:14:36;0.90;97.60
29813;DHT22;16707;48.106;11.548;2023-03-01T08:17:03;0.90;97.50
29813;DHT22;16707;48.106;11.548;2023-03-01T08:19:32;1.10;97.30
29813;DHT22;16707;48.106;11.548;2023-03-01T08:22:00;1.20;97.20
29813;DHT22;16707;48.106;11.548;2023-03-01T08:24:28;1.50;96.50
29813;DHT22;16707;48.106;11.548;2023-03-01T08:26:55;1.40;96.00
29813;DHT22;16707;48.106;11.548;2023-03-01T08:29:22;1.20;96.30
29813;DHT22;16707;48.106;11.548;2023-03-01T08:31:50;1.10;96.40
29813;DHT22;16707;48.106;11.548;2023-03-01T08:34:18;1.30;96.50
29813;DHT22;16707;48.106;11.548;2023-03-01T08:36:47;1.40;95.90
29813;DHT22;16707;48.106;11.548;2023-03-01T08:39:17;1.40;95.90
29813;DHT22;16707;48.106;11.548;2023-03-01T08:41:45;1.40;96.30
29813;DHT22;16707;48.106;11.548;2023-03-01T08:44:13;1.20;96.20
29813;DHT22;16707;48.106;11.548;2023-03-01T08:46:42;1.50;96.00
29813;DHT22;16707;48.106;11.548;2023-03-01T08:49:14;1.50;96.30
29813;DHT22;16707;48.106;11.548;2023-03-01T08:51:41;1.60;95.60
29813;DHT22;16707;48.106;11.548;2023-03-01T08:54:12;1.90;95.00
29813;DHT22;16707;48.106;11.548;2023-03-01T08:56:40;1.80;94.50
29813;DHT22;16707;48.106;11.548;2023-03-01T08:59:07;1.80;94.80
29813;DHT22;16707;48.106;11.548;2023-03-01T09:01:34;2.00;94.40
29813;DHT22;16707;48.106;11.548;2023-03-01T09:04:03;2.20;93.60
29813;DHT22;16707;48.106;11.548;2023-03-01T09:06:30;1.90;94.20
29813;DHT22;16707;48.106;11.548;2023-03-01T09:08:58;1.90;94.00
29813;DHT22;16707;48.106;11.548;2023-03-01T09:11:28;2.10;93.90
29813;DHT22;16707;48.106;11.548;2023-03-01T09:13:55;2.30;93.60
29813;DHT22;16707;48.106;11.548;2023-03-01T09:16:22;2.20;93.60
29813;DHT22;16707;48.106;11.548;2023-03-01T09:18:50;2.40;93.40
29813;DHT22;16707;48.106;11.548;2023-03-01T09:21:19;2.60;93.20
29813;DHT22;16707;48.106;11.548;2023-03-01T09:23:47;3.00;92.50
29813;DHT22;16707;48.106;11.548;2023-03-01T09:26:16;2.70;91.90
29813;DHT22;16707;48.106;11.548;2023-03-01T09:28:46;2.40;92.60
29813;DHT22;16707;48.106;11.548;2023-03-01T09:31:14;2.90;92.70
29813;DHT22;16707;48.106;11.548;2023-03-01T09:33:45;3.00;92.10
29813;DHT22;16707;48.106;11.548;2023-03-01T09:36:20;2.70;91.90
29813;DHT22;16707;48.106;11.548;2023-03-01T09:38:51;2.70;92.20
29813;DHT22;16707;48.106;11.548;2023-03-01T09:41:43;2.60;92.20
29813;DHT22;16707;48.106;11.548;2023-03-01T09:44:35;2.20;92.90
29813;DHT22;16707;48.106;11.548;2023-03-01T09:47:03;2.20;93.20
29813;DHT22;16707;48.106;11.548;2023-03-01T09:49:33;2.10;93.90
29813;DHT22;16707;48.106;11.548;2023-03-01T09:52:03;2.50;93.00
29813;DHT22;16707;48.106;11.548;2023-03-01T09:54:33;2.70;92.60
29813;DHT22;16707;48.106;11.548;2023-03-01T09:57:10;2.40;92.70
29813;DHT22;16707;48.106;11.548;2023-03-01T09:59:55;2.30;93.20
29813;DHT22;16707;48.106;11.548;2023-03-01T10:02:28;2.50;93.00
29813;DHT22;16707;48.106;11.548;2023-03-01T10:05:03;2.40;92.90
29813;DHT22;16707;48.106;11.548;2023-03-01T10:07:44;2.40;92.90
29813;DHT22;16707;48.106;11.548;2023-03-01T10:10:25;2.60;92.80
29813;DHT22;16707;48.106;11.548;2023-03-01T10:12:53;2.60;92.40
29813;DHT22;16707;48.106;11.548;2023-03-01T10:15:32;2.60;92.70
29813;DHT22;16707;48.106;11.548;2023-03-01T10:18:04;2.80;92.20
29813;DHT22;16707;48.106;11.548;2023-03-01T10:20:42;2.40;92.60
29813;DHT22;16707;48.106;11.548;2023-03-01T10:23:11;2.60;93.30
29813;DHT22;16707;48.106;11.548;2023-03-01T10:26:04;2.90;92.10
29813;DHT22;16707;48.106;11.548;2023-03-01T10:28:42;2.90;92.10
29813;DHT22;16707;48.106;11.548;2023-03-01T10:31:14;3.10;91.90
29813;DHT22;16707;48.106;11.548;2023-03-01T10:33:45;3.50;91.30
29813;DHT22;16707;48.106;11.548;2023-03-01T10:36:13;3.70;90.80
29813;DHT22;16707;48.106;11.548;2023-03-01T10:38:51;3.30;90.10
29813;DHT22;16707;48.106;11.548;2023-03-01T10:41:20;3.20;91.30
29813;DHT22;16707;48.106;11.548;2023-03-01T10:43:50;3.30;90.80
29813;DHT22;16707;48.106;11.548;2023-03-01T10:46:25;3.60;90.70
29813;DHT22;16707;48.106;11.548;2023-03-01T10:49:07;3.70;89.90
29813;DHT22;16707;48.106;11.548;2023-03-01T10:51:34;4.10;88.70
29813;DHT22;16707;48.106;11.548;2023-03-01T10:54:02;4.10;86.20
29813;DHT22;16707;48.106;11.548;2023-03-01T10:56:46;3.60;88.30
29813;DHT22;16707;48.106;11.548;2023-03-01T10:59:22;3.50;89.60
29813;DHT22;16707;48.106;11.548;2023-03-01T11:02:15;3.80;89.80
29813;DHT22;16707;48.106;11.548;2023-03-01T11:04:57;4.10;87.50
29813;DHT22;16707;48.106;11.548;2023-03-01T11:07:29;4.50;86.60
29813;DHT22;16707;48.106;11.548;2023-03-01T11:09:56;4.00;85.00
29813;DHT22;16707;48.106;11.548;2023-03-01T11:12:24;4.10;86.60
29813;DHT22;16707;48.106;11.548;2023-03-01T11:14:54;4.60;86.20
29813;DHT22;16707;48.106;11.548;2023-03-01T11:17:27;4.20;86.30
29813;DHT22;16707;48.106;11.548;2023-03-01T11:20:02;4.30;86.20
29813;DHT22;16707;48.106;11.548;2023-03-01T11:22:33;4.20;86.00
29813;DHT22;16707;48.106;11.548;2023-03-01T11:25:01;4.50;86.40
29813;DHT22;16707;48.106;11.548;2023-03-01T11:27:33;4.40;85.10
29813;DHT22;16707;48.106;11.548;2023-03-01T11:30:04;3.90;86.20
29813;DHT22;16707;48.106;11.548;2023-03-01T11:32:38;4.00;87.20
29813;DHT22;16707;48.106;11.548;2023-03-01T11:35:12;3.80;87.10
29813;DHT22;16707;48.106;11.548;2023-03-01T11:37:45;3.90;87.70
29813;DHT22;16707;48.106;11.548;2023-03-01T11:40:23;3.90;88.40
29813;DHT22;16707;48.106;11.548;2023-03-01T11:42:59;4.30;87.50
29813;DHT22;16707;48.106;11.548;2023-03-01T11:45:42;4.30;85.80
29813;DHT22;16707;48.106;11.548;2023-03-01T11:48:30;4.20;86.90
29813;DHT22;16707;48.106;11.548;2023-03-01T11:51:03;4.20;86.40
29813;DHT22;16707;48.106;11.548;2023-03-01T11:53:47;4.40;87.00
29813;DHT22;16707;48.106;11.548;2023-03-01T11:56:26;4.30;87.10
29813;DHT22;16707;48.106;11.548;2023-03-01T11:59:06;4.50;85.50
29813;DHT22;16707;48.106;11.548;2023-03-01T12:01:51;4.90;85.10
29813;DHT22;16707;48.106;11.548;2023-03-01T12:04:52;4.90;83.30
29813;DHT22;16707;48.106;11.548;2023-03-01T12:07:25;5.30;83.50
29813;DHT22;16707;48.106;11.548;2023-03-01T12:10:16;5.30;82.00
29813;DHT22;16707;48.106;11.548;2023-03-01T12:12:58;5.40;82.20
29813;DHT22;16707;48.106;11.548;2023-03-01T12:16:06;5.10;81.90
29813;DHT22;16707;48.106;11.548;2023-03-01T12:19:00;5.30;82.60
29813;DHT22;16707;48.106;11.548;2023-03-01T12:21:42;5.20;82.80
29813;DHT22;16707;48.106;11.548;2023-03-01T12:28:04;5.10;82.90
29813;DHT22;16707;48.106;11.548;2023-03-01T12:30:43;5.10;82.60
29813;DHT22;16707;48.106;11.548;2023-03-01T12:33:25;5.30;84.40
29813;DHT22;16707;48.106;11.548;2023-03-01T12:36:14;4.70;83.60
29813;DHT22;16707;48.106;11.548;2023-03-01T12:38:49;4.50;84.60
29813;DHT22;16707;48.106;11.548;2023-03-01T12:41:43;4.60;85.50
29813;DHT22;16707;48.106;11.548;2023-03-01T12:44:27;4.60;85.90
29813;DHT22;16707;48.106;11.548;2023-03-01T12:47:12;4.90;84.80
29813;DHT22;16707;48.106;11.548;2023-03-01T12:49:44;5.10;84.40
29813;DHT22;16707;48.106;11.548;2023-03-01T12:52:16;5.10;83.70
29813;DHT22;16707;48.106;11.548;2023-03-01T12:54:45;5.20;83.70
29813;DHT22;16707;48.106;11.548;2023-03-01T12:57:21;5.20;83.00
29813;DHT22;16707;48.106;11.548;2023-03-01T13:00:02;4.90;83.60
29813;DHT22;16707;48.106;11.548;2023-03-01T13:02:40;4.80;84.50
29813;DHT22;16707;48.106;11.548;2023-03-01T13:05:29;4.80;84.80
29813;DHT22;16707;48.106;11.548;2023-03-01T13:08:07;4.90;85.30
29813;DHT22;16707;48.106;11.548;2023-03-01T13:10:41;5.20;84.10
29813;DHT22;16707;48.106;11.548;2023-03-01T13:13:13;5.10;84.20
29813;DHT22;16707;48.106;11.548;2023-03-01T13:15:41;5.30;84.00
29813;DHT22;16707;48.106;11.548;2023-03-01T13:18:28;5.20;83.30
29813;DHT22;16707;48.106;11.548;2023-03-01T13:20:56;5.30;84.00
29813;DHT22;16707;48.106;11.548;2023-03-01T13:23:26;5.50;83.10
29813;DHT22;16707;48.106;11.548;2023-03-01T13:26:12;5.70;82.70
29813;DHT22;16707;48.106;11.548;2023-03-01T13:28:50;5.80;81.90
29813;DHT22;16707;48.106;11.548;2023-03-01T13:34:47;5.60;82.40
29813;DHT22;16707;48.106;11.548;2023-03-01T13:37:24;5.60;82.60
29813;DHT22;16707;48.106;11.548;2023-03-01T13:39:55;5.80;82.20
29813;DHT22;16707;48.106;11.548;2023-03-01T13:42:39;6.00;81.80
29813;DHT22;16707;48.106;11.548;2023-03-01T13:45:20;5.90;82.10
29813;DHT22;16707;48.106;11.548;2023-03-01T13:47:55;6.00;82.20
29813;DHT22;16707;48.106;11.548;2023-03-01T13:50:25;5.90;82.40
29813;DHT22;16707;48.106;11.548;2023-03-01T13:52:56;6.10;82.40
29813;DHT22;16707;48.106;11.548;2023-03-01T13:55:30;6.30;81.10
29813;DHT22;16707;48.106;11.548;2023-03-01T13:58:01;6.50;80.50
29813;DHT22;16707;48.106;11.548;2023-03-01T14:00:36;6.30;80.20
29813;DHT22;16707;48.106;11.548;2023-03-01T14:03:11;6.20;81.40
29813;DHT22;16707;48.106;11.548;2023-03-01T14:05:38;6.10;81.90
29813;DHT22;16707;48.106;11.548;2023-03-01T14:08:19;6.20;81.40
29813;DHT22;16707;48.106;11.548;2023-03-01T14:11:01;6.20;81.10
29813;DHT22;16707;48.106;11.548;2023-03-01T14:13:39;6.10;81.00
29813;DHT22;16707;48.106;11.548;2023-03-01T14:16:28;6.00;81.90
29813;DHT22;16707;48.106;11.548;2023-03-01T14:19:07;6.00;82.20
29813;DHT22;16707;48.106;11.548;2023-03-01T14:21:36;6.00;82.00
29813;DHT22;16707;48.106;11.548;2023-03-01T14:24:04;6.10;81.90
29813;DHT22;16707;48.106;11.548;2023-03-01T14:26:32;6.10;81.90
29813;DHT22;16707;48.106;11.548;2023-03-01T14:29:03;6.00;81.60
29813;DHT22;16707;48.106;11.548;2023-03-01T14:31:36;6.00;82.30
29813;DHT22;16707;48.106;11.548;2023-03-01T14:34:03;6.00;82.50
29813;DHT22;16707;48.106;11.548;2023-03-01T14:36:32;6.00;82.40
29813;DHT22;16707;48.106;11.548;2023-03-01T14:39:00;6.10;82.50
29813;DHT22;16707;48.106;11.548;2023-03-01T14:41:33;6.00;82.20
29813;DHT22;16707;48.106;11.548;2023-03-01T14:44:03;5.90;83.40
29813;DHT22;16707;48.106;11.548;2023-03-01T14:46:37;5.80;83.20
29813;DHT22;16707;48.106;11.548;2023-03-01T14:49:06;5.90;84.10
29813;DHT22;16707;48.106;11.548;2023-03-01T14:51:36;5.90;83.50
29813;DHT22;16707;48.106;11.548;2023-03-01T14:54:13;6.00;83.60
29813;DHT22;16707;48.106;11.548;2023-03-01T14:56:45;6.10;83.70
29813;DHT22;16707;48.106;11.548;2023-03-01T14:59:15;6.20;83.10
29813;DHT22;16707;48.106;11.548;2023-03-01T15:01:43;6.20;83.00
29813;DHT22;16707;48.106;11.548;2023-03-01T15:04:12;6.20;82.70
29813;DHT22;16707;48.106;11.548;2023-03-01T15:06:46;6.20;83.30
29813;DHT22;16707;48.106;11.548;2023-03-01T15:09:15;6.30;83.10
29813;DHT22;16707;48.106;11.548;2023-03-01T15:11:43;6.30;83.10
29813;DHT22;16707;48.106;11.548;2023-03-01T15:14:38;6.30;83.30
29813;DHT22;16707;48.106;11.548;2023-03-01T15:17:23;6.10;84.10
29813;DHT22;16707;48.106;11.548;2023-03-01T15:19:53;6.20;84.00
29813;DHT22;16707;48.106;11.548;2023-03-01T15:22:21;6.30;84.10
29813;DHT22;16707;48.106;11.548;2023-03-01T15:24:48;6.20;84.10
29813;DHT22;16707;48.106;11.548;2023-03-01T15:27:17;6.20;84.20
29813;DHT22;16707;48.106;11.548;2023-03-01T15:29:49;6.10;84.70
29813;DHT22;16707;48.106;11.548;2023-03-01T15:32:30;6.20;84.80
29813;DHT22;16707;48.106;11.548;2023-03-01T15:34:58;6.10;85.10
29813;DHT22;16707;48.106;11.548;2023-03-01T15:37:44;6.20;85.70
29813;DHT22;16707;48.106;11.548;2023-03-01T15:40:21;6.10;84.70
29813;DHT22;16707;48.106;11.548;2023-03-01T15:42:50;6.10;85.50
29813;DHT22;16707;48.106;11.548;2023-03-01T15:45:24;6.10;85.40
29813;DHT22;16707;48.106;11.548;2023-03-01T15:47:56;6.10;85.60
29813;DHT22;16707;48.106;11.548;2023-03-01T15:50:25;6.10;85.50
29813;DHT22;16707;48.106;11.548;2023-03-01T15:52:57;6.10;85.80
29813;DHT22;16707;48.106;11.548;2023-03-01T15:55:26;6.00;86.10
29813;DHT22;16707;48.106;11.548;2023-03-01T15:58:03;6.00;86.70
29813;DHT22;16707;48.106;11.548;2023-03-01T16:00:32;5.90;86.90
29813;DHT22;16707;48.106;11.548;2023-03-01T16:03:01;5.90;87.50
29813;DHT22;16707;48.106;11.548;2023-03-01T16:05:33;6.00;87.60